Time;durP1;ratioP1;P1;durP2;ratioP2;P2;SDS_P1;SDS_P2;PMS_P1;PMS_P2;Temp;Humidity;BMP_temperature;BMP_pressure;BME280_temperature;BME280_humidity;BME280_pressure;Samples;Min_cycle;Max_cycle;Signal;HPM_P1;HPM_P2
2022/11/03 00:00:23;;;;;;;28.10;14.20;;;;;;;14.06;100.00;149573.09;5072078;28;20572;-57
2022/11/03 00:02:51;;;;;;;29.77;17.03;;;;;;;13.96;100.00;149547.72;5071898;28;20661;-57
2022/11/03 00:08:02;;;;;;;28.30;17.03;;;;;;;14.27;100.00;149625.06;5071609;28;20179;-57
2022/11/03 00:10:30;;;;;;;20.80;16.17;;;;;;;14.26;100.00;149621.28;5071836;28;20181;-57
2022/11/03 00:12:57;;;;;;;29.00;16.33;;;;;;;14.27;100.00;149623.78;5071484;28;20196;-57
2022/11/03 00:15:23;;;;;;;28.90;16.87;;;;;;;14.32;100.00;149637.72;5071547;28;20195;-57
2022/11/03 00:17:52;;;;;;;26.10;16.93;;;;;;;14.45;100.00;149669.47;5071573;28;20277;-57
2022/11/03 00:20:19;;;;;;;18.77;16.87;;;;;;;14.51;100.00;149684.72;5071382;28;20195;-57
2022/11/03 00:22:46;;;;;;;22.67;14.27;;;;;;;14.69;100.00;149730.31;5071489;28;20188;-56
2022/11/03 00:25:12;;;;;;;22.87;15.97;;;;;;;14.71;100.00;149735.44;5071727;28;20633;-57
2022/11/03 00:27:39;;;;;;;17.60;15.43;;;;;;;14.76;100.00;149748.13;5071573;28;20648;-56
2022/11/03 00:30:07;;;;;;;25.93;15.93;;;;;;;14.82;100.00;149763.31;5071375;28;20292;-57
2022/11/03 00:32:34;;;;;;;19.20;13.13;;;;;;;14.93;100.00;149791.22;5071285;28;20232;-56
2022/11/03 00:35:03;;;;;;;33.27;16.00;;;;;;;14.93;100.00;149789.97;5071642;28;20631;-56
2022/11/03 00:37:30;;;;;;;23.63;15.63;;;;;;;15.10;100.00;149833.09;5071536;28;20235;-56
2022/11/03 00:39:57;;;;;;;15.17;11.73;;;;;;;15.08;100.00;149829.28;5072066;28;20626;-57
2022/11/03 00:42:23;;;;;;;12.90;11.57;;;;;;;15.28;100.00;149877.44;5075143;28;20228;-56
2022/11/03 00:44:50;;;;;;;23.40;14.33;;;;;;;15.39;100.00;149905.41;5075119;28;20191;-57
2022/11/03 00:47:17;;;;;;;15.27;11.87;;;;;;;15.34;100.00;149893.97;5075331;28;20200;-56
2022/11/03 00:49:44;;;;;;;11.87;10.50;;;;;;;15.47;100.00;149925.69;5074990;28;20185;-55
2022/11/03 00:52:12;;;;;;;12.77;11.27;;;;;;;15.57;100.00;149951.13;5075148;28;20180;-56
2022/11/03 00:54:39;;;;;;;10.13;9.23;;;;;;;15.65;100.00;149970.16;5075239;28;20184;-56
2022/11/03 00:57:06;;;;;;;10.80;9.13;;;;;;;15.69;100.00;149980.31;5075116;28;20213;-56
2022/11/03 00:59:33;;;;;;;12.20;9.77;;;;;;;15.77;100.00;150001.88;5075214;28;20665;-58
2022/11/03 01:02:00;;;;;;;10.33;9.20;;;;;;;15.81;100.00;150012.03;5074660;28;20185;-55
2022/11/03 01:07:13;;;;;;;10.37;9.37;;;;;;;15.99;100.00;150057.75;5074846;28;20176;-55
2022/11/03 01:09:43;;;;;;;9.40;8.80;;;;;;;16.11;100.00;150085.66;5056884;28;20181;-56
2022/11/03 01:12:11;;;;;;;9.97;8.80;;;;;;;16.18;100.00;150103.41;5074867;28;20654;-56
2022/11/03 01:14:40;;;;;;;18.27;10.20;;;;;;;16.24;100.00;150119.94;5074519;28;20185;-57
2022/11/03 01:17:09;;;;;;;13.70;10.07;;;;;;;16.26;100.00;150123.72;5074539;28;20232;-58
2022/11/03 01:19:36;;;;;;;12.00;9.73;;;;;;;16.13;100.00;150091.97;5075055;28;20286;-57
2022/11/03 01:22:03;;;;;;;12.63;9.00;;;;;;;16.30;100.00;150135.16;5074540;28;20195;-56
2022/11/03 01:24:31;;;;;;;14.27;9.30;;;;;;;16.20;100.00;150109.78;5074655;28;20279;-57
2022/11/03 01:26:58;;;;;;;11.33;9.60;;;;;;;16.22;100.00;150113.56;5074286;28;20555;-57
2022/11/03 01:29:25;;;;;;;12.67;9.30;;;;;;;15.94;100.00;150043.78;5074660;28;20577;-57
2022/11/03 01:31:52;;;;;;;11.10;9.73;;;;;;;16.06;100.00;150074.22;5074326;28;20598;-57
2022/11/03 01:34:21;;;;;;;21.57;10.53;;;;;;;16.00;100.00;150060.25;5074330;28;20193;-55
2022/11/03 01:36:48;;;;;;;10.53;9.60;;;;;;;15.94;100.00;150043.78;5074582;28;20266;-57
2022/11/03 01:39:16;;;;;;;14.70;9.53;;;;;;;16.06;100.00;150072.94;5074821;28;20624;-56
2022/11/03 01:41:47;;;;;;;10.57;9.23;;;;;;;16.09;100.00;150080.56;5075344;28;20219;-55
2022/11/03 01:44:28;;;;;;;11.73;9.40;;;;;;;16.03;100.00;150065.34;5074668;28;20189;-56
2022/11/03 01:47:01;;;;;;;11.30;9.80;;;;;;;15.93;100.00;150042.50;5074338;28;20547;-56
2022/11/03 01:49:33;;;;;;;10.93;9.73;;;;;;;15.40;100.00;149909.16;5074099;28;20189;-56
2022/11/03 01:52:04;;;;;;;12.00;9.93;;;;;;;15.55;100.00;149946.03;5072814;28;20181;-57
2022/11/03 01:54:33;;;;;;;10.37;9.57;;;;;;;15.47;100.00;149926.97;5073882;28;20191;-56
2022/11/03 01:57:05;;;;;;;9.60;8.80;;;;;;;15.57;100.00;149951.13;5073647;28;20214;-56
2022/11/03 01:59:32;;;;;;;15.70;9.03;;;;;;;15.61;100.00;149961.28;5073934;28;20276;-57
2022/11/03 02:01:59;;;;;;;10.07;8.87;;;;;;;15.49;100.00;149930.75;5073557;28;20275;-55
2022/11/03 02:04:31;;;;;;;9.60;8.77;;;;;;;15.53;100.00;149942.22;5073854;28;20268;-56
2022/11/03 02:07:09;;;;;;;9.70;8.90;;;;;;;15.67;100.00;149976.50;5073844;28;20204;-57
2022/11/03 02:09:36;;;;;;;9.67;8.87;;;;;;;15.80;100.00;150008.22;5073594;28;20185;-56
2022/11/03 02:12:08;;;;;;;10.07;9.20;;;;;;;15.93;100.00;150041.22;5073413;28;20185;-57
2022/11/03 02:14:37;;;;;;;9.57;8.70;;;;;;;15.96;100.00;150048.81;5073378;28;20189;-57
2022/11/03 02:17:09;;;;;;;9.90;9.20;;;;;;;15.94;100.00;150045.03;5073487;28;20216;-57
2022/11/03 02:19:39;;;;;;;8.90;8.10;;;;;;;15.98;100.00;150055.19;5073340;28;20276;-57
2022/11/03 02:22:24;;;;;;;9.10;8.60;;;;;;;16.01;100.00;150061.53;5073655;28;20216;-56
2022/11/03 02:24:53;;;;;;;11.10;9.20;;;;;;;16.12;100.00;150088.22;5073428;28;20184;-56
2022/11/03 02:27:21;;;;;;;9.93;8.93;;;;;;;16.16;100.00;150098.38;5073308;28;20211;-57
2022/11/03 02:29:49;;;;;;;9.90;8.97;;;;;;;16.11;100.00;150085.66;5073331;28;20632;-56
2022/11/03 02:32:21;;;;;;;11.90;8.83;;;;;;;16.20;100.00;150108.50;5072919;28;20610;-57
2022/11/03 02:34:56;;;;;;;9.77;8.63;;;;;;;16.21;100.00;150112.28;5073314;28;20271;-58
2022/11/03 02:37:28;;;;;;;15.63;10.00;;;;;;;16.23;100.00;150116.13;5072836;28;20215;-57
2022/11/03 02:39:58;;;;;;;9.50;8.47;;;;;;;16.29;100.00;150132.66;5073180;28;20636;-57
2022/11/03 02:42:26;;;;;;;9.63;8.87;;;;;;;16.29;100.00;150131.38;5073150;28;20184;-57
2022/11/03 02:44:57;;;;;;;10.97;8.73;;;;;;;16.37;100.00;150151.69;5072771;28;20187;-57
2022/11/03 02:47:28;;;;;;;9.87;9.20;;;;;;;16.34;100.00;150144.03;5073079;28;20212;-56
2022/11/03 02:49:55;;;;;;;11.33;8.70;;;;;;;15.87;100.00;150027.25;5072654;28;20196;-57
2022/11/03 02:52:35;;;;;;;10.07;9.27;;;;;;;15.98;100.00;150055.19;5072959;28;20189;-56
2022/11/03 02:55:07;;;;;;;18.97;10.07;;;;;;;15.94;100.00;150043.78;5072511;28;20192;-57
2022/11/03 02:57:38;;;;;;;10.80;10.00;;;;;;;16.02;100.00;150064.06;5072678;28;20667;-56
2022/11/03 03:00:08;;;;;;;16.43;9.53;;;;;;;15.93;100.00;150042.50;5072750;28;20647;-57
2022/11/03 03:02:41;;;;;;;10.37;9.60;;;;;;;15.94;100.00;150043.78;5072300;28;20197;-57
2022/11/03 03:05:10;;;;;;;12.30;9.67;;;;;;;16.07;100.00;150075.50;5072561;28;20242;-56
2022/11/03 03:07:41;;;;;;;10.63;9.70;;;;;;;16.11;100.00;150086.94;5072585;28;20683;-57
2022/11/03 03:10:11;;;;;;;9.87;9.27;;;;;;;16.15;100.00;150097.09;5072247;28;20193;-57
2022/11/03 03:12:43;;;;;;;12.27;9.83;;;;;;;16.02;100.00;150062.81;5072415;28;20191;-57
2022/11/03 03:15:10;;;;;;;10.80;9.87;;;;;;;16.02;100.00;150064.06;5072510;28;20191;-57
2022/11/03 03:17:44;;;;;;;11.40;10.30;;;;;;;16.14;100.00;150094.53;5072085;28;20295;-56
2022/11/03 03:20:20;;;;;;;11.00;9.93;;;;;;;16.04;100.00;150067.91;5072399;28;20631;-57
2022/11/03 03:22:53;;;;;;;11.13;10.10;;;;;;;16.07;100.00;150075.50;5072197;28;20185;-57
2022/11/03 03:25:25;;;;;;;12.27;10.97;;;;;;;16.07;100.00;150076.78;5054697;28;20643;-56
2022/11/03 03:28:00;;;;;;;11.10;10.03;;;;;;;15.99;100.00;150056.47;5072335;28;20575;-57
2022/11/03 03:30:29;;;;;;;11.40;10.27;;;;;;;15.83;100.00;150017.09;5071809;28;20184;-58
2022/11/03 03:32:58;;;;;;;11.07;9.97;;;;;;;15.49;100.00;149930.75;5072200;28;20595;-57
2022/11/03 03:35:29;;;;;;;10.70;9.80;;;;;;;15.81;100.00;150012.03;5071929;28;20184;-58
2022/11/03 03:38:01;;;;;;;11.53;10.07;;;;;;;15.80;100.00;150009.50;5072041;28;20667;-57
2022/11/03 03:40:32;;;;;;;13.80;10.20;;;;;;;15.75;100.00;149996.78;5072303;28;20590;-56
2022/11/03 03:43:02;;;;;;;17.17;12.17;;;;;;;15.94;100.00;150045.03;5072125;28;20251;-56
2022/11/03 03:45:31;;;;;;;12.83;11.60;;;;;;;15.81;100.00;150012.03;5071842;28;20276;-56
2022/11/03 03:47:59;;;;;;;14.13;11.37;;;;;;;15.78;100.00;150004.44;5072299;28;20562;-56
2022/11/03 03:50:31;;;;;;;13.07;11.73;;;;;;;15.78;100.00;150003.16;5071793;28;20198;-55
2022/11/03 03:53:01;;;;;;;11.90;10.67;;;;;;;15.42;100.00;149913.00;5072038;28;20275;-56
2022/11/03 03:55:34;;;;;;;11.70;10.67;;;;;;;15.58;100.00;149953.63;5071721;28;20184;-56
2022/11/03 03:58:03;;;;;;;14.70;10.60;;;;;;;15.62;100.00;149963.78;5071836;28;20234;-57
2022/11/03 04:00:30;;;;;;;11.17;10.33;;;;;;;15.51;100.00;149937.16;5071943;28;20689;-57
2022/11/03 04:02:58;;;;;;;10.57;9.80;;;;;;;15.51;100.00;149935.88;5071658;28;20664;-56
2022/11/03 04:05:25;;;;;;;10.20;9.27;;;;;;;15.59;100.00;149956.19;5071565;28;20195;-56
2022/11/03 04:07:52;;;;;;;13.80;10.50;;;;;;;15.65;100.00;149971.44;5071844;28;20547;-56
2022/11/03 04:10:22;;;;;;;21.67;13.27;;;;;;;15.49;100.00;149932.00;5071749;28;20181;-57
2022/11/03 04:23:50;;;;;;;24.33;13.20;;;;;;;15.05;100.00;149821.66;5075839;28;20271;-57
2022/11/03 04:26:21;;;;;;;19.83;12.13;;;;;;;15.00;100.00;149808.97;5075714;28;20188;-57
2022/11/03 04:28:49;;;;;;;18.50;12.47;;;;;;;14.89;100.00;149779.81;5075661;28;20192;-56
2022/11/03 04:31:19;;;;;;;15.20;12.67;;;;;;;14.73;100.00;149740.47;5075288;28;20229;-57
2022/11/03 04:33:46;;;;;;;13.07;11.67;;;;;;;14.73;100.00;149739.19;5075740;28;20188;-56
2022/11/03 04:36:18;;;;;;;14.33;11.70;;;;;;;14.68;100.00;149727.81;5075301;28;20184;-58
2022/11/03 04:38:49;;;;;;;19.33;12.53;;;;;;;14.62;100.00;149712.59;5075531;28;20671;-58
2022/11/03 04:41:18;;;;;;;15.77;11.57;;;;;;;14.73;100.00;149740.47;5075226;28;20203;-56
2022/11/03 04:43:46;;;;;;;14.03;11.70;;;;;;;14.84;100.00;149768.41;5075270;28;20193;-56
2022/11/03 04:46:17;;;;;;;16.37;12.17;;;;;;;14.61;100.00;149711.31;5075395;28;20196;-57
2022/11/03 04:48:46;;;;;;;23.60;12.27;;;;;;;14.70;100.00;149732.88;5074958;28;20187;-57
2022/11/03 04:51:18;;;;;;;13.07;11.87;;;;;;;14.84;100.00;149768.41;5075009;28;20191;-57
2022/11/03 04:53:49;;;;;;;13.60;12.17;;;;;;;14.98;100.00;149802.59;5075274;28;20181;-57
2022/11/03 04:56:20;;;;;;;13.40;12.10;;;;;;;15.06;100.00;149822.94;5075193;28;20635;-56
2022/11/03 04:58:48;;;;;;;13.73;11.97;;;;;;;15.11;100.00;149835.59;5074651;28;20205;-57
2022/11/03 05:01:19;;;;;;;13.40;12.20;;;;;;;15.20;100.00;149857.16;5075185;28;20617;-57
2022/11/03 05:03:48;;;;;;;15.17;12.77;;;;;;;15.30;100.00;149882.56;5074716;28;20181;-57
2022/11/03 05:06:17;;;;;;;13.40;12.07;;;;;;;15.27;100.00;149874.94;5074680;28;20185;-57
2022/11/03 05:08:48;;;;;;;13.70;12.30;;;;;;;15.32;100.00;149887.66;5074648;28;20185;-57
2022/11/03 05:11:20;;;;;;;15.33;12.80;;;;;;;15.36;100.00;149899.03;5074909;28;20619;-57
2022/11/03 05:13:48;;;;;;;17.37;11.90;;;;;;;15.40;100.00;149909.16;5074902;28;20193;-56
2022/11/03 05:16:15;;;;;;;13.77;12.40;;;;;;;15.38;100.00;149902.84;5074382;28;20220;-58
2022/11/03 05:18:46;;;;;;;17.30;12.90;;;;;;;15.47;100.00;149925.69;5074308;28;20254;-57
2022/11/03 05:21:16;;;;;;;15.07;13.50;;;;;;;15.43;100.00;149915.53;5073466;28;20558;-56
2022/11/03 05:23:47;;;;;;;20.50;13.97;;;;;;;15.44;100.00;149919.38;5074338;28;20185;-56
2022/11/03 05:26:18;;;;;;;16.50;13.50;;;;;;;15.48;100.00;149929.50;5074370;28;20185;-56
2022/11/03 05:28:48;;;;;;;23.20;15.77;;;;;;;15.49;100.00;149932.00;5074936;28;20184;-56
2022/11/03 05:31:22;;;;;;;26.47;15.90;;;;;;;15.57;100.00;149951.13;5074300;28;20299;-57
2022/11/03 05:33:52;;;;;;;16.70;13.93;;;;;;;15.65;100.00;149971.44;5074501;28;20266;-57
2022/11/03 05:36:22;;;;;;;21.00;13.90;;;;;;;15.65;100.00;149970.16;5074145;28;20185;-57
2022/11/03 05:38:50;;;;;;;20.97;14.17;;;;;;;15.58;100.00;149953.63;5074305;28;20232;-57
2022/11/03 05:41:23;;;;;;;23.57;14.47;;;;;;;15.99;100.00;150057.75;5074006;28;20189;-57
2022/11/03 05:43:57;;;;;;;25.33;15.13;;;;;;;16.30;100.00;150133.88;5074005;28;20326;-58
2022/11/03 05:46:29;;;;;;;13.63;12.10;;;;;;;16.35;100.00;150146.59;5074055;28;20202;-57
2022/11/03 05:49:00;;;;;;;17.47;14.27;;;;;;;16.15;100.00;150095.81;5074622;28;20674;-56
2022/11/03 05:51:31;;;;;;;15.10;12.83;;;;;;;16.46;100.00;150175.78;5073879;28;20188;-57
2022/11/03 05:54:02;;;;;;;21.07;14.43;;;;;;;16.75;100.00;150248.25;5073833;28;20196;-58
2022/11/03 05:56:31;;;;;;;24.77;14.13;;;;;;;17.02;100.00;150314.25;5074026;28;20199;-57
2022/11/03 05:59:00;;;;;;;19.03;13.47;;;;;;;17.29;100.00;150382.88;5073765;28;20209;-58
2022/11/03 06:01:30;;;;;;;21.00;13.77;;;;;;;17.31;100.00;150389.22;5073740;28;20218;-56
2022/11/03 06:04:00;;;;;;;23.70;14.50;;;;;;;17.44;100.00;150421.00;5073821;28;20189;-57
2022/11/03 06:06:30;;;;;;;20.30;14.40;;;;;;;17.67;100.00;150479.50;5073506;28;20196;-57
2022/11/03 06:08:58;;;;;;;16.30;13.80;;;;;;;17.99;100.00;150558.34;5073988;28;20624;-56
2022/11/03 06:11:28;;;;;;;14.90;12.87;;;;;;;18.19;100.00;150610.47;5073791;28;20193;-53
2022/11/03 06:13:58;;;;;;;14.47;13.07;;;;;;;18.61;100.00;150716.06;5073658;28;20191;-54
2022/11/03 06:16:37;;;;;;;24.10;15.03;;;;;;;18.86;100.00;150777.09;5073346;28;20181;-56
2022/11/03 06:19:18;;;;;;;28.43;15.90;;;;;;;19.00;100.00;150814.00;5073948;28;20246;-57
2022/11/03 06:21:46;;;;;;;26.77;15.83;;;;;;;19.28;100.00;150882.69;5079924;28;20192;-58
2022/11/03 06:24:14;;;;;;;20.73;14.53;;;;;;;19.41;100.00;150915.75;5093593;28;20199;-57
2022/11/03 06:26:43;;;;;;;23.87;14.17;;;;;;;19.65;100.00;150976.88;5086407;28;20200;-58
2022/11/03 06:29:15;;;;;;;29.80;14.33;;;;;;;19.78;100.00;151010.00;5073267;28;20185;-58
2022/11/03 06:31:43;;;;;;;29.77;14.77;;;;;;;19.79;100.00;151011.28;5072959;28;20301;-57
2022/11/03 06:34:25;;;;;;;23.33;15.33;;;;;;;19.81;100.00;151017.66;5072894;28;20195;-58
2022/11/03 06:36:52;;;;;;;19.53;13.87;;;;;;;20.04;100.00;151074.91;5073117;28;20701;-58
2022/11/03 06:39:23;;;;;;;20.90;14.33;;;;;;;20.19;100.00;151113.13;5072155;28;20200;-59
2022/11/03 06:41:50;;;;;;;20.13;14.20;;;;;;;20.24;100.00;151125.81;5072695;28;20193;-57
2022/11/03 06:44:23;;;;;;;21.37;14.27;;;;;;;20.76;100.00;151257.06;5072647;28;20184;-57
2022/11/03 06:46:50;;;;;;;17.90;14.37;;;;;;;20.74;100.00;151252.00;5073055;28;20667;-58
2022/11/03 06:49:28;;;;;;;15.17;13.87;;;;;;;20.98;100.00;151313.13;5072995;28;20555;-56
2022/11/03 06:51:56;;;;;;;22.42;13.52;;;;;;;21.37;100.00;151410.00;5072617;28;20189;-61
2022/11/03 06:54:23;;;;;;;24.02;14.48;;;;;;;21.65;100.00;151481.38;5072601;28;20200;-59
2022/11/03 06:56:50;;;;;;;16.85;13.13;;;;;;;22.44;100.00;151680.31;5072279;28;20267;-58
2022/11/03 06:59:19;;;;;;;22.42;14.10;;;;;;;22.46;100.00;151685.41;5072069;28;20208;-59
2022/11/03 07:01:50;;;;;;;17.95;13.18;;;;;;;22.89;100.00;151793.88;5072720;28;20188;-59
2022/11/03 07:04:21;;;;;;;15.63;13.10;;;;;;;22.98;100.00;151816.84;5072100;28;20195;-59
2022/11/03 07:06:50;;;;;;;19.40;14.02;;;;;;;22.49;100.00;151691.81;5072266;28;20189;-59
2022/11/03 07:09:21;;;;;;;19.08;13.68;;;;;;;22.07;100.00;151585.94;5072071;28;20524;-59
2022/11/03 07:11:52;;;;;;;20.17;13.93;;;;;;;21.82;100.00;151523.44;5071856;28;20192;-57
2022/11/03 07:14:21;;;;;;;28.40;13.60;;;;;;;22.06;100.00;151584.69;5072066;28;20185;-59
2022/11/03 07:16:50;;;;;;;13.45;11.98;;;;;;;22.16;100.00;151610.16;5072238;28;20558;-58
2022/11/03 07:19:21;;;;;;;11.98;11.18;;;;;;;22.43;100.00;151677.75;5071646;28;20208;-60
2022/11/03 07:21:52;;;;;;;21.92;15.68;;;;;;;22.59;100.00;151717.28;5072006;28;20631;-59
2022/11/03 07:24:26;;;;;;;26.85;14.80;;;;;;;22.98;100.00;151816.84;5071397;28;20223;-59
2022/11/03 07:27:00;;;;;;;19.38;14.82;;;;;;;23.26;100.00;151887.00;5071903;28;20191;-58
2022/11/03 07:29:28;;;;;;;18.67;14.90;;;;;;;23.11;100.00;151850.00;5072021;28;20671;-56
2022/11/03 07:31:59;;;;;;;31.20;16.10;;;;;;;22.68;100.00;151740.25;5071882;28;20232;-57
2022/11/03 07:34:33;;;;;;;24.23;16.38;;;;;;;22.66;100.00;151736.41;5071987;28;20540;-57
2022/11/03 07:37:01;;;;;;;22.13;15.90;;;;;;;22.04;100.00;151579.56;5072082;28;20602;-59
2022/11/03 07:39:35;;;;;;;22.63;15.40;;;;;;;21.86;100.00;151533.63;5072035;28;20209;-59
2022/11/03 07:42:03;;;;;;;33.13;16.58;;;;;;;22.32;100.00;151649.69;5071885;28;20618;-60
2022/11/03 07:44:30;;;;;;;30.67;16.02;;;;;;;22.40;100.00;151668.84;5067563;28;20193;-59
2022/11/03 07:46:57;;;;;;;26.45;16.00;;;;;;;22.58;100.00;151714.72;5071862;28;20201;-60
2022/11/03 07:49:29;;;;;;;24.48;15.55;;;;;;;22.88;100.00;151790.03;5070755;28;20185;-59
2022/11/03 07:52:00;;;;;;;22.15;14.63;;;;;;;23.45;97.73;151934.28;5067722;28;20686;-60
2022/11/03 07:54:33;;;;;;;16.02;14.35;;;;;;;23.85;93.95;152036.34;5071085;28;20189;-60
2022/11/03 07:57:04;;;;;;;14.05;12.65;;;;;;;24.35;90.92;152161.53;5068362;28;20188;-59
2022/11/03 07:59:33;;;;;;;25.45;13.15;;;;;;;24.75;85.25;152262.41;5070401;28;20210;-59
2022/11/03 08:02:01;;;;;;;17.92;12.68;;;;;;;25.05;83.93;152337.81;5068464;28;20188;-60
2022/11/03 08:04:31;;;;;;;13.15;12.15;;;;;;;24.65;84.09;152238.16;5070792;28;20636;-60
2022/11/03 08:06:58;;;;;;;18.98;12.02;;;;;;;24.02;88.44;152079.75;5068419;28;20279;-60
2022/11/03 08:09:26;;;;;;;14.57;12.77;;;;;;;23.65;90.04;151986.59;5072205;28;20188;-60
2022/11/03 08:11:54;;;;;;;21.60;13.63;;;;;;;22.83;95.46;151778.53;5071552;28;20265;-59
2022/11/03 08:14:21;;;;;;;14.70;13.25;;;;;;;22.24;100.00;151630.56;5053267;28;20571;-59
2022/11/03 08:16:48;;;;;;;18.70;13.20;;;;;;;22.17;100.00;151612.72;5072068;28;20215;-59
2022/11/03 08:19:15;;;;;;;16.90;12.55;;;;;;;21.97;100.00;151560.47;5070850;28;20209;-59
2022/11/03 08:21:42;;;;;;;11.23;10.05;;;;;;;22.63;100.00;151728.78;5071420;28;20188;-61
2022/11/03 08:24:08;;;;;;;13.80;11.02;;;;;;;23.51;92.99;151949.56;5071450;28;20234;-59
2022/11/03 08:26:36;;;;;;;12.18;11.07;;;;;;;23.75;90.82;152009.56;5071597;28;20188;-59
2022/11/03 08:29:04;;;;;;;11.32;9.73;;;;;;;24.61;83.89;152227.97;5070366;28;20238;-59
2022/11/03 08:31:31;;;;;;;14.35;8.30;;;;;;;24.40;81.89;152174.31;5069161;28;20236;-60
2022/11/03 08:34:00;;;;;;;12.70;8.02;;;;;;;24.57;80.21;152218.97;5057108;28;20197;-59
2022/11/03 08:36:27;;;;;;;10.90;6.35;;;;;;;24.86;76.47;152290.59;5050937;28;20243;-60
2022/11/03 08:38:54;;;;;;;6.78;6.28;;;;;;;25.57;72.22;152470.75;5050926;28;20707;-59
2022/11/03 08:41:21;;;;;;;6.57;6.10;;;;;;;27.15;67.67;152871.06;5051531;28;20272;-61
2022/11/03 08:43:48;;;;;;;6.30;5.90;;;;;;;28.10;60.21;153111.69;5051051;28;20196;-60
2022/11/03 08:46:16;;;;;;;6.28;5.90;;;;;;;27.15;61.83;152869.78;5055674;28;20544;-60
2022/11/03 08:48:43;;;;;;;6.10;5.80;;;;;;;27.76;57.84;153023.31;5071357;28;20678;-61
2022/11/03 08:51:12;;;;;;;8.75;5.57;;;;;;;29.05;55.49;153352.47;5053505;28;20220;-60
2022/11/03 08:53:41;;;;;;;5.47;5.00;;;;;;;29.38;50.85;153434.47;5070522;28;20264;-61
2022/11/03 08:56:10;;;;;;;5.22;4.75;;;;;;;27.73;52.77;153016.94;5071355;28;20648;-60
2022/11/03 08:58:37;;;;;;;4.72;4.53;;;;;;;26.77;54.66;152775.09;5071252;28;20238;-60
2022/11/03 09:01:04;;;;;;;4.88;4.53;;;;;;;26.80;55.60;152781.47;5071678;28;20279;-59
2022/11/03 09:03:33;;;;;;;4.15;3.95;;;;;;;27.09;54.01;152855.69;5074421;28;20300;-60
2022/11/03 09:06:00;;;;;;;5.07;4.78;;;;;;;27.25;52.61;152896.63;5074271;28;20181;-60
2022/11/03 09:08:26;;;;;;;4.30;4.03;;;;;;;27.24;54.52;152894.03;5074779;28;20181;-60
2022/11/03 09:10:53;;;;;;;6.63;4.40;;;;;;;28.33;51.25;153169.31;5074437;28;20283;-60
2022/11/03 09:13:22;;;;;;;4.57;4.38;;;;;;;28.81;48.71;153289.72;5075245;28;20216;-60
2022/11/03 09:15:49;;;;;;;4.07;3.88;;;;;;;28.00;50.43;153084.78;5040208;28;20276;-60
2022/11/03 09:18:16;;;;;;;5.15;4.78;;;;;;;28.56;49.63;153226.88;5074782;28;20192;-60
2022/11/03 09:20:45;;;;;;;6.60;4.47;;;;;;;29.66;45.63;153506.25;5074162;28;20185;-60
2022/11/03 09:23:12;;;;;;;4.32;3.90;;;;;;;28.84;48.05;153297.38;5074207;28;20200;-59
2022/11/03 09:25:39;;;;;;;4.43;3.92;;;;;;;29.53;45.93;153471.63;5074477;28;20191;-59
2022/11/03 09:28:05;;;;;;;3.90;3.60;;;;;;;26.79;49.53;152778.91;5074463;28;20188;-59
2022/11/03 09:30:33;;;;;;;3.95;3.75;;;;;;;25.69;53.30;152501.44;5073555;28;20272;-60
2022/11/03 09:32:59;;;;;;;4.45;4.25;;;;;;;25.46;54.87;152442.63;5054509;28;20186;-60
2022/11/03 09:35:29;;;;;;;3.42;3.33;;;;;;;25.13;56.12;152359.53;5054101;28;20205;-60
2022/11/03 09:37:58;;;;;;;5.43;4.10;;;;;;;25.69;56.16;152501.44;5054521;28;20268;-59
2022/11/03 09:40:25;;;;;;;8.45;6.10;;;;;;;26.59;56.72;152727.75;5054657;28;20667;-60
2022/11/03 09:42:52;;;;;;;13.35;10.05;;;;;;;25.26;66.99;152391.47;5054054;28;20692;-58
2022/11/03 09:45:19;;;;;;;17.60;10.05;;;;;;;25.85;65.46;152541.03;5054730;28;20643;-61
2022/11/03 09:47:46;;;;;;;18.33;10.00;;;;;;;26.50;65.39;152706.00;5054554;28;20219;-60
2022/11/03 09:50:16;;;;;;;13.40;10.15;;;;;;;26.19;66.28;152626.69;5054092;28;20182;-60
2022/11/03 09:52:43;;;;;;;10.07;9.32;;;;;;;26.69;63.91;152754.59;5054250;28;20251;-60
2022/11/03 09:55:17;;;;;;;10.95;9.98;;;;;;;27.11;62.93;152859.53;5053931;28;20272;-60
2022/11/03 09:57:46;;;;;;;9.52;8.73;;;;;;;27.22;61.38;152887.66;5053523;28;20194;-60
2022/11/03 10:00:19;;;;;;;9.15;8.20;;;;;;;27.68;59.35;153005.44;5053557;28;20212;-61
2022/11/03 10:02:47;;;;;;;12.13;9.60;;;;;;;26.80;61.95;152781.47;5053559;28;20189;-63
2022/11/03 10:05:16;;;;;;;9.07;7.80;;;;;;;27.40;60.45;152933.75;5053686;28;20254;-61
2022/11/03 10:07:45;;;;;;;9.52;8.65;;;;;;;26.88;62.02;152800.69;5053836;28;20189;-62
2022/11/03 10:10:20;;;;;;;9.40;8.85;;;;;;;26.29;64.69;152653.59;5053215;28;20190;-64
2022/11/03 10:12:50;;;;;;;9.23;8.30;;;;;;;26.49;65.79;152702.16;5052242;28;20181;-63
2022/11/03 10:15:19;;;;;;;10.05;9.05;;;;;;;27.27;62.49;152900.47;5053699;28;20636;-62
2022/11/03 10:17:46;;;;;;;13.15;9.25;;;;;;;27.54;62.04;152969.56;5052962;28;20192;-62
2022/11/03 10:20:16;;;;;;;10.05;9.02;;;;;;;28.53;58.62;153220.50;5053241;28;20245;-61
2022/11/03 10:22:45;;;;;;;9.57;8.70;;;;;;;28.48;57.75;153207.69;5053277;28;20193;-61
2022/11/03 10:25:34;;;;;;;10.65;8.63;;;;;;;28.49;57.46;153210.25;5053399;28;20575;-61
2022/11/03 10:28:20;;;;;;;10.75;8.95;;;;;;;28.51;59.47;153214.13;5051911;28;20213;-61
2022/11/03 10:30:54;;;;;;;9.93;9.23;;;;;;;28.23;60.62;153142.41;5044672;28;20285;-60
2022/11/03 10:33:29;;;;;;;9.32;8.55;;;;;;;27.75;61.83;153020.81;5054551;28;20632;-61
2022/11/03 10:35:57;;;;;;;9.85;8.95;;;;;;;27.76;61.86;153023.31;5068476;28;20195;-61
2022/11/03 10:38:30;;;;;;;10.02;9.20;;;;;;;27.55;61.62;152970.88;5074462;28;20272;-60
2022/11/03 10:41:10;;;;;;;10.15;9.27;;;;;;;27.06;63.86;152846.75;5068782;28;20193;-60
2022/11/03 10:43:37;;;;;;;9.30;8.65;;;;;;;26.74;66.87;152767.38;5064548;28;20287;-60
2022/11/03 10:46:17;;;;;;;10.30;8.65;;;;;;;26.92;65.61;152810.91;5084359;28;20291;-60
2022/11/03 10:48:44;;;;;;;9.35;8.85;;;;;;;26.90;65.28;152807.09;5072534;28;20318;-60
2022/11/03 10:51:12;;;;;;;10.35;8.55;;;;;;;26.69;66.08;152754.59;5071926;28;20223;-60
2022/11/03 10:53:41;;;;;;;10.80;8.75;;;;;;;26.85;64.78;152793.03;5060785;28;20205;-62
2022/11/03 10:56:10;;;;;;;12.98;9.10;;;;;;;26.75;65.70;152768.66;5056331;28;20258;-61
2022/11/03 10:58:38;;;;;;;7.90;7.50;;;;;;;26.41;65.20;152683.00;5066498;28;20201;-61
2022/11/03 11:01:06;;;;;;;9.25;8.75;;;;;;;25.60;70.55;152477.13;5085685;28;20283;-61
2022/11/03 11:03:38;;;;;;;10.68;8.63;;;;;;;25.15;73.69;152363.38;5079332;28;20198;-60
2022/11/03 11:06:05;;;;;;;10.20;9.40;;;;;;;24.49;77.24;152197.25;5072777;28;20184;-61
2022/11/03 11:08:32;;;;;;;9.57;8.85;;;;;;;23.98;82.82;152068.25;5072436;28;20556;-61
2022/11/03 11:11:06;;;;;;;9.27;8.70;;;;;;;23.40;87.61;151921.44;5072400;28;20185;-61
2022/11/03 11:13:34;;;;;;;9.38;8.73;;;;;;;22.83;95.86;151777.31;5072559;28;20189;-60
2022/11/03 11:16:02;;;;;;;12.88;9.05;;;;;;;22.13;100.00;151602.53;5072553;28;20695;-61
2022/11/03 11:19:08;;;;;;;10.60;9.70;;;;;;;21.73;100.00;151500.47;5072830;28;20264;-61
2022/11/03 11:22:01;;;;;;;10.75;9.57;;;;;;;21.32;100.00;151398.53;5072267;28;20185;-61
2022/11/03 11:24:59;;;;;;;10.63;9.88;;;;;;;20.78;100.00;151260.91;5071796;28;20231;-61
2022/11/03 11:28:05;;;;;;;10.43;9.33;;;;;;;20.59;100.00;151212.47;5072484;28;20199;-61
2022/11/03 11:31:25;;;;;;;10.20;9.33;;;;;;;20.14;100.00;151100.41;5072849;28;20192;-61
2022/11/03 11:34:40;;;;;;;10.67;9.67;;;;;;;19.83;100.00;151021.44;5091989;28;20203;-62
2022/11/03 11:37:32;;;;;;;11.00;9.90;;;;;;;19.92;100.00;151044.38;5086613;28;20205;-61
2022/11/03 11:39:59;;;;;;;10.70;9.70;;;;;;;19.46;100.00;150929.81;5057973;28;20211;-61